EFTU

Turku Airport

Turku, Finland
METAR EFTU 161020Z AUTO 14003KT 110V180 3500 -RA BR FEW004/// BKN006/// OVC012/// 01/01 Q0996
Observed Flight Rules
Dec-16 @ 10:20 UTC (44 minutes ago) Instrument Flight Rules
Wind Visibility Clouds Conditions
140° at 3 knots 3,492 meters
  • Few at 400' AGL
  • Broken at 600' AGL
  • Overcast at 1,200' AGL
  • Light Rain
  • Mist
Temperatures Readings
Current 1°C / 34°F
Dewpoint 1°C / 34°F
Humidity 100%
Altimeter 29.41" Hg
Pressure 996 hPa
Elevation 59
METAR EFTU 161020Z AUTO 14003KT 110V180 3500 -RA BR FEW004/// BKN006/// OVC012/// 01/01 Q0996
Observed Flight Rules
Dec-16 @ 10:20 UTC
(44 minutes ago)
IFR
Wind Visibility
140° at 3 knots 3,492 meters
Clouds
  • Few at 400' AGL
  • Broken at 600' AGL
  • Overcast at 1,200' AGL
Conditions
  • Light Rain
  • Mist
Temperature Dewpoint
1°C / 34°F 1°C / 34°F
Humidity Altimeter Pressure
100% 29.41" Hg 996 hPa